sensor_id;sensor_type;location;lat;lon;timestamp;P1;durP1;ratioP1;P2;durP2;ratioP2
17141;SDS011;32805;53.556;9.944;2024-03-08T00:02:13;17.80;;;12.27;;
17141;SDS011;32805;53.556;9.944;2024-03-08T00:04:43;18.33;;;11.63;;
17141;SDS011;32805;53.556;9.944;2024-03-08T00:07:11;18.42;;;11.32;;
17141;SDS011;32805;53.556;9.944;2024-03-08T00:09:39;19.55;;;11.18;;
17141;SDS011;32805;53.556;9.944;2024-03-08T00:12:09;18.52;;;11.60;;
17141;SDS011;32805;53.556;9.944;2024-03-08T00:14:43;16.77;;;11.07;;
17141;SDS011;32805;53.556;9.944;2024-03-08T00:17:11;16.73;;;11.07;;
17141;SDS011;32805;53.556;9.944;2024-03-08T00:19:39;17.08;;;11.70;;
17141;SDS011;32805;53.556;9.944;2024-03-08T00:22:07;16.70;;;11.25;;
17141;SDS011;32805;53.556;9.944;2024-03-08T00:24:50;18.92;;;11.27;;
17141;SDS011;32805;53.556;9.944;2024-03-08T00:27:19;17.08;;;11.30;;
17141;SDS011;32805;53.556;9.944;2024-03-08T00:29:50;18.88;;;12.23;;
17141;SDS011;32805;53.556;9.944;2024-03-08T00:32:21;20.15;;;11.63;;
17141;SDS011;32805;53.556;9.944;2024-03-08T00:34:51;19.15;;;11.82;;
17141;SDS011;32805;53.556;9.944;2024-03-08T00:37:19;18.58;;;12.70;;
17141;SDS011;32805;53.556;9.944;2024-03-08T00:39:48;19.70;;;10.93;;
17141;SDS011;32805;53.556;9.944;2024-03-08T00:42:31;19.50;;;11.90;;
17141;SDS011;32805;53.556;9.944;2024-03-08T00:45:05;16.80;;;11.60;;
17141;SDS011;32805;53.556;9.944;2024-03-08T00:47:37;22.98;;;12.40;;
17141;SDS011;32805;53.556;9.944;2024-03-08T00:50:06;20.02;;;11.30;;
17141;SDS011;32805;53.556;9.944;2024-03-08T00:52:35;18.30;;;11.85;;
17141;SDS011;32805;53.556;9.944;2024-03-08T00:55:03;17.95;;;12.45;;
17141;SDS011;32805;53.556;9.944;2024-03-08T00:57:32;20.02;;;11.60;;
17141;SDS011;32805;53.556;9.944;2024-03-08T00:59:59;19.05;;;11.85;;
17141;SDS011;32805;53.556;9.944;2024-03-08T01:02:27;18.60;;;12.38;;
17141;SDS011;32805;53.556;9.944;2024-03-08T01:04:55;18.70;;;11.55;;
17141;SDS011;32805;53.556;9.944;2024-03-08T01:07:23;21.63;;;12.35;;
17141;SDS011;32805;53.556;9.944;2024-03-08T01:09:50;16.33;;;11.15;;
17141;SDS011;32805;53.556;9.944;2024-03-08T01:12:18;17.08;;;11.73;;
17141;SDS011;32805;53.556;9.944;2024-03-08T01:14:47;19.85;;;11.98;;
17141;SDS011;32805;53.556;9.944;2024-03-08T01:17:15;22.17;;;12.85;;
17141;SDS011;32805;53.556;9.944;2024-03-08T01:19:43;20.10;;;11.70;;
17141;SDS011;32805;53.556;9.944;2024-03-08T01:22:11;19.52;;;13.02;;
17141;SDS011;32805;53.556;9.944;2024-03-08T01:24:39;18.42;;;11.80;;
17141;SDS011;32805;53.556;9.944;2024-03-08T01:27:06;20.35;;;11.85;;
17141;SDS011;32805;53.556;9.944;2024-03-08T01:29:35;18.27;;;11.93;;
17141;SDS011;32805;53.556;9.944;2024-03-08T01:32:05;18.40;;;11.35;;
17141;SDS011;32805;53.556;9.944;2024-03-08T01:34:33;19.00;;;11.70;;
17141;SDS011;32805;53.556;9.944;2024-03-08T01:37:03;17.85;;;12.05;;
17141;SDS011;32805;53.556;9.944;2024-03-08T01:39:33;16.50;;;11.18;;
17141;SDS011;32805;53.556;9.944;2024-03-08T01:42:03;21.67;;;12.80;;
17141;SDS011;32805;53.556;9.944;2024-03-08T01:44:32;20.63;;;12.70;;
17141;SDS011;32805;53.556;9.944;2024-03-08T01:46:59;18.00;;;11.77;;
17141;SDS011;32805;53.556;9.944;2024-03-08T01:49:29;19.42;;;12.18;;
17141;SDS011;32805;53.556;9.944;2024-03-08T01:51:57;20.88;;;12.23;;
17141;SDS011;32805;53.556;9.944;2024-03-08T01:54:27;18.40;;;11.95;;
17141;SDS011;32805;53.556;9.944;2024-03-08T01:56:54;21.10;;;11.38;;
17141;SDS011;32805;53.556;9.944;2024-03-08T01:59:23;21.05;;;11.75;;
17141;SDS011;32805;53.556;9.944;2024-03-08T02:01:51;18.45;;;11.65;;
17141;SDS011;32805;53.556;9.944;2024-03-08T02:04:19;20.05;;;12.02;;
17141;SDS011;32805;53.556;9.944;2024-03-08T02:06:50;18.35;;;11.20;;
17141;SDS011;32805;53.556;9.944;2024-03-08T02:09:18;20.80;;;12.18;;
17141;SDS011;32805;53.556;9.944;2024-03-08T02:11:45;21.98;;;12.40;;
17141;SDS011;32805;53.556;9.944;2024-03-08T02:14:13;19.05;;;11.82;;
17141;SDS011;32805;53.556;9.944;2024-03-08T02:16:41;18.75;;;12.00;;
17141;SDS011;32805;53.556;9.944;2024-03-08T02:19:08;18.83;;;11.65;;
17141;SDS011;32805;53.556;9.944;2024-03-08T02:21:37;17.15;;;11.43;;
17141;SDS011;32805;53.556;9.944;2024-03-08T02:24:05;20.42;;;11.43;;
17141;SDS011;32805;53.556;9.944;2024-03-08T02:26:33;22.80;;;12.82;;
17141;SDS011;32805;53.556;9.944;2024-03-08T02:29:01;21.77;;;12.20;;
17141;SDS011;32805;53.556;9.944;2024-03-08T02:31:29;19.52;;;12.25;;
17141;SDS011;32805;53.556;9.944;2024-03-08T02:33:57;21.00;;;11.77;;
17141;SDS011;32805;53.556;9.944;2024-03-08T02:36:26;22.00;;;12.48;;
17141;SDS011;32805;53.556;9.944;2024-03-08T02:38:58;21.73;;;12.52;;
17141;SDS011;32805;53.556;9.944;2024-03-08T02:41:25;21.10;;;13.10;;
17141;SDS011;32805;53.556;9.944;2024-03-08T02:43:53;20.13;;;11.60;;
17141;SDS011;32805;53.556;9.944;2024-03-08T02:46:21;19.27;;;12.48;;
17141;SDS011;32805;53.556;9.944;2024-03-08T02:48:51;22.42;;;12.30;;
17141;SDS011;32805;53.556;9.944;2024-03-08T02:51:19;18.55;;;12.00;;
17141;SDS011;32805;53.556;9.944;2024-03-08T02:53:47;22.23;;;13.02;;
17141;SDS011;32805;53.556;9.944;2024-03-08T02:56:19;18.10;;;12.10;;
17141;SDS011;32805;53.556;9.944;2024-03-08T02:58:48;18.80;;;11.48;;
17141;SDS011;32805;53.556;9.944;2024-03-08T03:01:15;23.60;;;13.30;;
17141;SDS011;32805;53.556;9.944;2024-03-08T03:03:45;22.25;;;12.10;;
17141;SDS011;32805;53.556;9.944;2024-03-08T03:06:15;19.92;;;12.48;;
17141;SDS011;32805;53.556;9.944;2024-03-08T03:08:43;19.80;;;12.63;;
17141;SDS011;32805;53.556;9.944;2024-03-08T03:11:12;20.23;;;12.85;;
17141;SDS011;32805;53.556;9.944;2024-03-08T03:13:41;24.05;;;12.48;;
17141;SDS011;32805;53.556;9.944;2024-03-08T03:16:16;21.25;;;12.90;;
17141;SDS011;32805;53.556;9.944;2024-03-08T03:18:44;20.50;;;12.43;;
17141;SDS011;32805;53.556;9.944;2024-03-08T03:21:12;18.02;;;12.75;;
17141;SDS011;32805;53.556;9.944;2024-03-08T03:23:40;21.75;;;12.68;;
17141;SDS011;32805;53.556;9.944;2024-03-08T03:26:08;20.63;;;11.82;;
17141;SDS011;32805;53.556;9.944;2024-03-08T03:28:38;22.38;;;13.32;;
17141;SDS011;32805;53.556;9.944;2024-03-08T03:31:07;20.55;;;12.45;;
17141;SDS011;32805;53.556;9.944;2024-03-08T03:33:40;19.90;;;12.57;;
17141;SDS011;32805;53.556;9.944;2024-03-08T03:36:08;23.60;;;13.77;;
17141;SDS011;32805;53.556;9.944;2024-03-08T03:38:36;21.98;;;12.45;;
17141;SDS011;32805;53.556;9.944;2024-03-08T03:41:04;25.63;;;14.82;;
17141;SDS011;32805;53.556;9.944;2024-03-08T03:43:36;21.80;;;13.10;;
17141;SDS011;32805;53.556;9.944;2024-03-08T03:46:05;22.40;;;12.40;;
17141;SDS011;32805;53.556;9.944;2024-03-08T03:48:34;20.85;;;13.43;;
17141;SDS011;32805;53.556;9.944;2024-03-08T03:51:02;21.50;;;12.50;;
17141;SDS011;32805;53.556;9.944;2024-03-08T03:53:30;20.35;;;12.05;;
17141;SDS011;32805;53.556;9.944;2024-03-08T03:55:57;21.92;;;13.02;;
17141;SDS011;32805;53.556;9.944;2024-03-08T03:58:25;23.75;;;13.82;;
17141;SDS011;32805;53.556;9.944;2024-03-08T04:00:54;21.20;;;12.90;;
17141;SDS011;32805;53.556;9.944;2024-03-08T04:03:21;22.27;;;13.05;;
17141;SDS011;32805;53.556;9.944;2024-03-08T04:05:50;23.38;;;12.65;;
17141;SDS011;32805;53.556;9.944;2024-03-08T04:08:18;24.88;;;13.48;;
17141;SDS011;32805;53.556;9.944;2024-03-08T04:10:45;22.50;;;14.00;;
17141;SDS011;32805;53.556;9.944;2024-03-08T04:13:13;25.48;;;13.95;;
17141;SDS011;32805;53.556;9.944;2024-03-08T04:15:41;23.52;;;14.55;;
17141;SDS011;32805;53.556;9.944;2024-03-08T04:18:15;23.63;;;13.48;;
17141;SDS011;32805;53.556;9.944;2024-03-08T04:20:42;24.38;;;12.43;;
17141;SDS011;32805;53.556;9.944;2024-03-08T04:23:11;28.40;;;16.17;;
17141;SDS011;32805;53.556;9.944;2024-03-08T04:25:39;23.50;;;13.43;;
17141;SDS011;32805;53.556;9.944;2024-03-08T04:28:08;25.85;;;13.48;;
17141;SDS011;32805;53.556;9.944;2024-03-08T04:30:38;24.83;;;14.35;;
17141;SDS011;32805;53.556;9.944;2024-03-08T04:33:05;22.45;;;13.70;;
17141;SDS011;32805;53.556;9.944;2024-03-08T04:35:33;25.10;;;13.98;;
17141;SDS011;32805;53.556;9.944;2024-03-08T04:38:01;24.27;;;13.50;;
17141;SDS011;32805;53.556;9.944;2024-03-08T04:40:33;26.48;;;14.20;;
17141;SDS011;32805;53.556;9.944;2024-03-08T04:43:01;25.23;;;13.70;;
17141;SDS011;32805;53.556;9.944;2024-03-08T04:45:28;22.88;;;13.77;;
17141;SDS011;32805;53.556;9.944;2024-03-08T04:47:56;25.83;;;13.05;;
17141;SDS011;32805;53.556;9.944;2024-03-08T04:50:24;21.50;;;13.75;;
17141;SDS011;32805;53.556;9.944;2024-03-08T04:52:55;26.55;;;14.48;;
17141;SDS011;32805;53.556;9.944;2024-03-08T04:55:23;22.75;;;13.95;;
17141;SDS011;32805;53.556;9.944;2024-03-08T04:57:52;25.42;;;13.48;;
17141;SDS011;32805;53.556;9.944;2024-03-08T05:00:20;27.23;;;13.93;;
17141;SDS011;32805;53.556;9.944;2024-03-08T05:02:47;22.63;;;13.73;;
17141;SDS011;32805;53.556;9.944;2024-03-08T05:05:15;24.70;;;14.45;;
17141;SDS011;32805;53.556;9.944;2024-03-08T05:07:44;22.65;;;13.55;;
17141;SDS011;32805;53.556;9.944;2024-03-08T05:10:12;27.13;;;14.13;;
17141;SDS011;32805;53.556;9.944;2024-03-08T05:12:43;21.55;;;13.00;;
17141;SDS011;32805;53.556;9.944;2024-03-08T05:15:12;26.05;;;14.13;;
17141;SDS011;32805;53.556;9.944;2024-03-08T05:17:41;21.13;;;13.18;;
17141;SDS011;32805;53.556;9.944;2024-03-08T05:20:09;26.00;;;14.32;;
17141;SDS011;32805;53.556;9.944;2024-03-08T05:22:39;26.30;;;13.43;;
17141;SDS011;32805;53.556;9.944;2024-03-08T05:25:08;25.63;;;13.70;;
17141;SDS011;32805;53.556;9.944;2024-03-08T05:27:37;24.38;;;12.98;;
17141;SDS011;32805;53.556;9.944;2024-03-08T05:30:05;24.65;;;13.68;;
17141;SDS011;32805;53.556;9.944;2024-03-08T05:32:34;27.17;;;14.02;;
17141;SDS011;32805;53.556;9.944;2024-03-08T05:35:02;25.80;;;13.95;;
17141;SDS011;32805;53.556;9.944;2024-03-08T05:37:33;21.55;;;13.13;;
17141;SDS011;32805;53.556;9.944;2024-03-08T05:40:01;27.13;;;13.75;;
17141;SDS011;32805;53.556;9.944;2024-03-08T05:42:41;21.70;;;13.05;;
17141;SDS011;32805;53.556;9.944;2024-03-08T05:45:09;23.25;;;13.93;;
17141;SDS011;32805;53.556;9.944;2024-03-08T05:47:40;23.70;;;13.48;;
17141;SDS011;32805;53.556;9.944;2024-03-08T05:50:08;22.73;;;13.85;;
17141;SDS011;32805;53.556;9.944;2024-03-08T05:52:37;25.25;;;14.25;;
17141;SDS011;32805;53.556;9.944;2024-03-08T05:55:05;23.40;;;13.80;;
17141;SDS011;32805;53.556;9.944;2024-03-08T05:57:34;27.63;;;14.13;;
17141;SDS011;32805;53.556;9.944;2024-03-08T06:00:05;26.70;;;15.07;;
17141;SDS011;32805;53.556;9.944;2024-03-08T06:02:37;22.20;;;13.15;;
17141;SDS011;32805;53.556;9.944;2024-03-08T06:05:09;26.10;;;14.15;;
17141;SDS011;32805;53.556;9.944;2024-03-08T06:07:37;24.88;;;14.63;;
17141;SDS011;32805;53.556;9.944;2024-03-08T06:10:07;23.17;;;12.85;;
17141;SDS011;32805;53.556;9.944;2024-03-08T06:12:36;21.40;;;13.27;;
17141;SDS011;32805;53.556;9.944;2024-03-08T06:15:06;25.60;;;14.80;;
17141;SDS011;32805;53.556;9.944;2024-03-08T06:17:35;24.00;;;13.88;;
17141;SDS011;32805;53.556;9.944;2024-03-08T06:20:03;23.90;;;15.02;;
17141;SDS011;32805;53.556;9.944;2024-03-08T06:22:38;31.05;;;14.77;;
17141;SDS011;32805;53.556;9.944;2024-03-08T06:25:07;29.48;;;17.25;;
17141;SDS011;32805;53.556;9.944;2024-03-08T06:27:34;25.25;;;14.70;;
17141;SDS011;32805;53.556;9.944;2024-03-08T06:30:02;27.60;;;15.25;;
17141;SDS011;32805;53.556;9.944;2024-03-08T06:32:30;24.23;;;13.80;;
17141;SDS011;32805;53.556;9.944;2024-03-08T06:35:01;25.15;;;14.02;;
17141;SDS011;32805;53.556;9.944;2024-03-08T06:37:32;23.83;;;13.93;;
17141;SDS011;32805;53.556;9.944;2024-03-08T06:40:01;24.30;;;14.00;;
17141;SDS011;32805;53.556;9.944;2024-03-08T06:42:29;22.60;;;14.40;;
17141;SDS011;32805;53.556;9.944;2024-03-08T06:45:00;23.95;;;14.02;;
17141;SDS011;32805;53.556;9.944;2024-03-08T06:47:31;25.70;;;14.30;;
17141;SDS011;32805;53.556;9.944;2024-03-08T06:50:00;22.98;;;14.45;;
17141;SDS011;32805;53.556;9.944;2024-03-08T06:52:27;24.50;;;14.48;;
17141;SDS011;32805;53.556;9.944;2024-03-08T06:54:55;39.72;;;20.95;;
17141;SDS011;32805;53.556;9.944;2024-03-08T06:57:25;26.45;;;15.30;;
17141;SDS011;32805;53.556;9.944;2024-03-08T06:59:52;25.38;;;14.20;;
17141;SDS011;32805;53.556;9.944;2024-03-08T07:02:20;24.33;;;14.43;;
17141;SDS011;32805;53.556;9.944;2024-03-08T07:04:50;26.33;;;14.65;;
17141;SDS011;32805;53.556;9.944;2024-03-08T07:07:19;23.52;;;14.18;;
17141;SDS011;32805;53.556;9.944;2024-03-08T07:09:47;24.50;;;14.77;;
17141;SDS011;32805;53.556;9.944;2024-03-08T07:12:15;25.42;;;15.20;;
17141;SDS011;32805;53.556;9.944;2024-03-08T07:14:45;23.65;;;14.98;;
17141;SDS011;32805;53.556;9.944;2024-03-08T07:17:12;27.20;;;15.75;;
17141;SDS011;32805;53.556;9.944;2024-03-08T07:19:40;26.25;;;15.20;;
17141;SDS011;32805;53.556;9.944;2024-03-08T07:22:07;25.48;;;14.85;;
17141;SDS011;32805;53.556;9.944;2024-03-08T07:24:35;24.42;;;14.75;;
17141;SDS011;32805;53.556;9.944;2024-03-08T07:27:22;24.10;;;15.38;;
17141;SDS011;32805;53.556;9.944;2024-03-08T07:29:51;24.27;;;15.15;;
17141;SDS011;32805;53.556;9.944;2024-03-08T07:32:34;28.92;;;16.15;;
17141;SDS011;32805;53.556;9.944;2024-03-08T07:35:01;24.85;;;15.10;;
17141;SDS011;32805;53.556;9.944;2024-03-08T07:37:28;26.08;;;15.48;;
17141;SDS011;32805;53.556;9.944;2024-03-08T07:39:56;26.92;;;16.17;;
17141;SDS011;32805;53.556;9.944;2024-03-08T07:42:24;25.98;;;16.33;;
17141;SDS011;32805;53.556;9.944;2024-03-08T07:44:53;25.90;;;15.15;;
17141;SDS011;32805;53.556;9.944;2024-03-08T07:47:21;28.95;;;17.42;;
17141;SDS011;32805;53.556;9.944;2024-03-08T07:49:50;28.42;;;14.90;;
17141;SDS011;32805;53.556;9.944;2024-03-08T07:52:18;28.65;;;15.23;;
17141;SDS011;32805;53.556;9.944;2024-03-08T07:54:45;26.38;;;16.50;;
17141;SDS011;32805;53.556;9.944;2024-03-08T07:57:13;25.17;;;14.48;;
17141;SDS011;32805;53.556;9.944;2024-03-08T07:59:40;27.50;;;15.93;;
17141;SDS011;32805;53.556;9.944;2024-03-08T08:02:09;24.42;;;15.27;;
17141;SDS011;32805;53.556;9.944;2024-03-08T08:04:37;29.08;;;16.40;;
17141;SDS011;32805;53.556;9.944;2024-03-08T08:07:05;26.35;;;15.02;;
17141;SDS011;32805;53.556;9.944;2024-03-08T08:09:33;28.33;;;15.82;;
17141;SDS011;32805;53.556;9.944;2024-03-08T08:12:01;24.80;;;15.60;;
17141;SDS011;32805;53.556;9.944;2024-03-08T08:14:29;25.42;;;15.20;;
17141;SDS011;32805;53.556;9.944;2024-03-08T08:16:57;26.63;;;16.02;;
17141;SDS011;32805;53.556;9.944;2024-03-08T08:19:31;25.77;;;14.95;;
17141;SDS011;32805;53.556;9.944;2024-03-08T08:21:59;27.40;;;15.57;;
17141;SDS011;32805;53.556;9.944;2024-03-08T08:24:28;25.30;;;15.40;;
17141;SDS011;32805;53.556;9.944;2024-03-08T08:26:55;24.48;;;15.35;;
17141;SDS011;32805;53.556;9.944;2024-03-08T08:29:23;25.10;;;15.38;;
17141;SDS011;32805;53.556;9.944;2024-03-08T08:31:50;25.90;;;16.05;;
17141;SDS011;32805;53.556;9.944;2024-03-08T08:34:18;26.02;;;15.48;;
17141;SDS011;32805;53.556;9.944;2024-03-08T08:36:47;26.35;;;16.25;;
17141;SDS011;32805;53.556;9.944;2024-03-08T08:39:15;25.88;;;15.68;;
17141;SDS011;32805;53.556;9.944;2024-03-08T08:41:43;25.92;;;15.57;;
17141;SDS011;32805;53.556;9.944;2024-03-08T08:44:10;27.05;;;15.82;;
17141;SDS011;32805;53.556;9.944;2024-03-08T08:46:42;26.15;;;16.17;;
17141;SDS011;32805;53.556;9.944;2024-03-08T08:49:09;25.58;;;15.85;;
17141;SDS011;32805;53.556;9.944;2024-03-08T08:51:40;25.38;;;16.08;;
17141;SDS011;32805;53.556;9.944;2024-03-08T08:54:09;24.60;;;15.52;;
17141;SDS011;32805;53.556;9.944;2024-03-08T08:56:40;27.33;;;16.15;;
17141;SDS011;32805;53.556;9.944;2024-03-08T08:59:07;26.30;;;16.80;;
17141;SDS011;32805;53.556;9.944;2024-03-08T09:01:35;23.58;;;15.27;;
17141;SDS011;32805;53.556;9.944;2024-03-08T09:04:04;25.60;;;15.93;;
17141;SDS011;32805;53.556;9.944;2024-03-08T09:06:32;25.10;;;14.77;;
17141;SDS011;32805;53.556;9.944;2024-03-08T09:08:59;26.55;;;15.05;;
17141;SDS011;32805;53.556;9.944;2024-03-08T09:11:32;26.75;;;14.75;;
17141;SDS011;32805;53.556;9.944;2024-03-08T09:14:00;23.25;;;15.73;;
17141;SDS011;32805;53.556;9.944;2024-03-08T09:16:28;27.80;;;16.20;;
17141;SDS011;32805;53.556;9.944;2024-03-08T09:18:55;26.50;;;15.90;;
17141;SDS011;32805;53.556;9.944;2024-03-08T09:21:23;28.90;;;16.45;;
17141;SDS011;32805;53.556;9.944;2024-03-08T09:23:51;25.70;;;15.95;;
17141;SDS011;32805;53.556;9.944;2024-03-08T09:26:18;26.38;;;15.88;;
17141;SDS011;32805;53.556;9.944;2024-03-08T09:28:56;25.95;;;16.13;;
17141;SDS011;32805;53.556;9.944;2024-03-08T09:31:23;23.27;;;15.20;;
17141;SDS011;32805;53.556;9.944;2024-03-08T09:33:52;29.45;;;16.35;;
17141;SDS011;32805;53.556;9.944;2024-03-08T09:36:19;23.70;;;15.25;;
17141;SDS011;32805;53.556;9.944;2024-03-08T09:38:47;29.40;;;15.73;;
17141;SDS011;32805;53.556;9.944;2024-03-08T09:41:16;27.05;;;15.65;;
17141;SDS011;32805;53.556;9.944;2024-03-08T09:43:45;28.00;;;16.42;;
17141;SDS011;32805;53.556;9.944;2024-03-08T09:46:14;22.63;;;15.45;;
17141;SDS011;32805;53.556;9.944;2024-03-08T09:48:42;23.30;;;15.07;;
17141;SDS011;32805;53.556;9.944;2024-03-08T09:51:11;23.70;;;14.57;;
17141;SDS011;32805;53.556;9.944;2024-03-08T09:53:41;27.13;;;15.00;;
17141;SDS011;32805;53.556;9.944;2024-03-08T09:56:09;25.05;;;15.98;;
17141;SDS011;32805;53.556;9.944;2024-03-08T09:58:38;24.83;;;15.45;;
17141;SDS011;32805;53.556;9.944;2024-03-08T10:01:25;25.40;;;14.88;;
17141;SDS011;32805;53.556;9.944;2024-03-08T10:03:53;24.83;;;15.57;;
17141;SDS011;32805;53.556;9.944;2024-03-08T10:06:22;25.55;;;14.23;;
17141;SDS011;32805;53.556;9.944;2024-03-08T10:08:50;23.15;;;14.65;;
17141;SDS011;32805;53.556;9.944;2024-03-08T10:11:20;29.42;;;15.43;;
17141;SDS011;32805;53.556;9.944;2024-03-08T10:13:49;23.77;;;14.80;;
17141;SDS011;32805;53.556;9.944;2024-03-08T10:16:17;26.63;;;15.38;;
17141;SDS011;32805;53.556;9.944;2024-03-08T10:18:46;26.70;;;14.68;;
17141;SDS011;32805;53.556;9.944;2024-03-08T10:21:14;23.67;;;15.27;;
17141;SDS011;32805;53.556;9.944;2024-03-08T10:23:44;22.80;;;16.45;;
17141;SDS011;32805;53.556;9.944;2024-03-08T10:26:12;25.38;;;15.13;;
17141;SDS011;32805;53.556;9.944;2024-03-08T10:28:42;26.20;;;14.85;;
17141;SDS011;32805;53.556;9.944;2024-03-08T10:31:10;25.55;;;15.40;;
17141;SDS011;32805;53.556;9.944;2024-03-08T10:33:40;22.35;;;13.70;;
17141;SDS011;32805;53.556;9.944;2024-03-08T10:36:09;24.33;;;14.95;;
17141;SDS011;32805;53.556;9.944;2024-03-08T10:38:37;23.20;;;14.43;;
17141;SDS011;32805;53.556;9.944;2024-03-08T10:41:06;22.88;;;15.13;;
17141;SDS011;32805;53.556;9.944;2024-03-08T10:43:40;23.80;;;14.60;;
17141;SDS011;32805;53.556;9.944;2024-03-08T10:46:16;19.65;;;13.27;;
17141;SDS011;32805;53.556;9.944;2024-03-08T10:48:45;20.63;;;13.57;;
17141;SDS011;32805;53.556;9.944;2024-03-08T10:51:17;22.10;;;14.00;;
17141;SDS011;32805;53.556;9.944;2024-03-08T10:53:46;24.17;;;14.48;;
17141;SDS011;32805;53.556;9.944;2024-03-08T10:56:15;20.58;;;12.73;;
17141;SDS011;32805;53.556;9.944;2024-03-08T10:58:42;19.83;;;13.00;;
17141;SDS011;32805;53.556;9.944;2024-03-08T11:01:11;18.70;;;11.48;;
17141;SDS011;32805;53.556;9.944;2024-03-08T11:03:45;21.02;;;13.80;;
17141;SDS011;32805;53.556;9.944;2024-03-08T11:06:17;18.60;;;11.27;;
17141;SDS011;32805;53.556;9.944;2024-03-08T11:08:46;20.92;;;12.40;;
17141;SDS011;32805;53.556;9.944;2024-03-08T11:11:23;19.23;;;12.88;;
17141;SDS011;32805;53.556;9.944;2024-03-08T11:13:58;17.98;;;12.20;;
17141;SDS011;32805;53.556;9.944;2024-03-08T11:16:39;20.10;;;12.02;;
17141;SDS011;32805;53.556;9.944;2024-03-08T11:19:25;23.45;;;13.32;;
17141;SDS011;32805;53.556;9.944;2024-03-08T11:22:00;21.95;;;12.90;;
17141;SDS011;32805;53.556;9.944;2024-03-08T11:24:36;20.77;;;12.45;;
17141;SDS011;32805;53.556;9.944;2024-03-08T11:27:06;19.55;;;12.40;;
17141;SDS011;32805;53.556;9.944;2024-03-08T11:29:36;20.27;;;12.65;;
17141;SDS011;32805;53.556;9.944;2024-03-08T11:32:09;19.42;;;12.05;;
17141;SDS011;32805;53.556;9.944;2024-03-08T11:34:37;21.40;;;12.73;;
17141;SDS011;32805;53.556;9.944;2024-03-08T11:37:11;17.98;;;11.85;;
17141;SDS011;32805;53.556;9.944;2024-03-08T11:39:40;22.27;;;12.63;;
17141;SDS011;32805;53.556;9.944;2024-03-08T11:42:08;17.92;;;12.63;;
17141;SDS011;32805;53.556;9.944;2024-03-08T11:44:36;21.00;;;13.52;;
17141;SDS011;32805;53.556;9.944;2024-03-08T11:47:07;20.58;;;12.68;;
17141;SDS011;32805;53.556;9.944;2024-03-08T11:49:36;20.13;;;12.20;;
17141;SDS011;32805;53.556;9.944;2024-03-08T11:52:04;19.58;;;12.52;;
17141;SDS011;32805;53.556;9.944;2024-03-08T11:54:33;18.35;;;12.10;;
17141;SDS011;32805;53.556;9.944;2024-03-08T11:57:02;18.55;;;12.32;;
17141;SDS011;32805;53.556;9.944;2024-03-08T11:59:30;18.10;;;12.35;;
17141;SDS011;32805;53.556;9.944;2024-03-08T12:02:02;22.60;;;13.32;;
17141;SDS011;32805;53.556;9.944;2024-03-08T12:04:30;20.48;;;11.88;;
17141;SDS011;32805;53.556;9.944;2024-03-08T12:07:02;15.13;;;10.52;;
17141;SDS011;32805;53.556;9.944;2024-03-08T12:09:36;17.55;;;10.40;;
17141;SDS011;32805;53.556;9.944;2024-03-08T12:12:05;16.83;;;11.18;;
17141;SDS011;32805;53.556;9.944;2024-03-08T12:14:33;17.42;;;11.05;;
17141;SDS011;32805;53.556;9.944;2024-03-08T12:17:01;19.58;;;11.75;;
17141;SDS011;32805;53.556;9.944;2024-03-08T12:19:29;18.52;;;11.95;;
17141;SDS011;32805;53.556;9.944;2024-03-08T12:21:56;17.10;;;11.63;;
17141;SDS011;32805;53.556;9.944;2024-03-08T12:24:24;21.08;;;11.52;;
17141;SDS011;32805;53.556;9.944;2024-03-08T12:26:57;19.52;;;10.95;;
17141;SDS011;32805;53.556;9.944;2024-03-08T12:29:32;17.20;;;11.63;;
17141;SDS011;32805;53.556;9.944;2024-03-08T12:32:06;16.92;;;10.88;;
17141;SDS011;32805;53.556;9.944;2024-03-08T12:34:38;19.95;;;11.70;;
17141;SDS011;32805;53.556;9.944;2024-03-08T12:37:05;17.48;;;11.15;;
17141;SDS011;32805;53.556;9.944;2024-03-08T12:39:36;16.70;;;10.88;;
17141;SDS011;32805;53.556;9.944;2024-03-08T12:42:05;18.15;;;10.98;;
17141;SDS011;32805;53.556;9.944;2024-03-08T12:44:33;16.63;;;11.13;;
17141;SDS011;32805;53.556;9.944;2024-03-08T12:47:03;19.40;;;11.25;;
17141;SDS011;32805;53.556;9.944;2024-03-08T12:49:31;17.42;;;11.48;;
17141;SDS011;32805;53.556;9.944;2024-03-08T12:51:59;18.77;;;10.82;;
17141;SDS011;32805;53.556;9.944;2024-03-08T12:54:36;18.45;;;11.45;;
17141;SDS011;32805;53.556;9.944;2024-03-08T12:57:05;18.20;;;10.70;;
17141;SDS011;32805;53.556;9.944;2024-03-08T12:59:34;17.88;;;12.32;;
17141;SDS011;32805;53.556;9.944;2024-03-08T13:02:02;18.30;;;12.05;;
17141;SDS011;32805;53.556;9.944;2024-03-08T13:04:32;18.35;;;11.23;;
17141;SDS011;32805;53.556;9.944;2024-03-08T13:07:00;17.65;;;11.10;;
17141;SDS011;32805;53.556;9.944;2024-03-08T13:09:31;21.88;;;11.38;;
17141;SDS011;32805;53.556;9.944;2024-03-08T13:12:05;18.55;;;10.80;;
17141;SDS011;32805;53.556;9.944;2024-03-08T13:14:35;17.05;;;11.23;;
17141;SDS011;32805;53.556;9.944;2024-03-08T13:17:03;20.67;;;12.07;;
17141;SDS011;32805;53.556;9.944;2024-03-08T13:19:33;17.77;;;11.30;;
17141;SDS011;32805;53.556;9.944;2024-03-08T13:22:03;17.25;;;11.15;;
17141;SDS011;32805;53.556;9.944;2024-03-08T13:24:32;24.52;;;13.68;;
17141;SDS011;32805;53.556;9.944;2024-03-08T13:27:00;17.98;;;11.52;;
17141;SDS011;32805;53.556;9.944;2024-03-08T13:29:29;18.20;;;10.52;;
17141;SDS011;32805;53.556;9.944;2024-03-08T13:31:56;17.33;;;11.18;;
17141;SDS011;32805;53.556;9.944;2024-03-08T13:34:28;18.00;;;10.25;;
17141;SDS011;32805;53.556;9.944;2024-03-08T13:36:55;17.05;;;11.15;;
17141;SDS011;32805;53.556;9.944;2024-03-08T13:39:27;16.10;;;10.27;;
17141;SDS011;32805;53.556;9.944;2024-03-08T13:41:55;16.88;;;10.90;;
17141;SDS011;32805;53.556;9.944;2024-03-08T13:44:23;17.58;;;10.73;;
17141;SDS011;32805;53.556;9.944;2024-03-08T13:46:55;18.60;;;11.60;;
17141;SDS011;32805;53.556;9.944;2024-03-08T13:49:24;16.70;;;10.40;;
17141;SDS011;32805;53.556;9.944;2024-03-08T13:51:52;15.82;;;10.57;;
17141;SDS011;32805;53.556;9.944;2024-03-08T13:54:21;18.08;;;10.27;;
17141;SDS011;32805;53.556;9.944;2024-03-08T13:56:48;18.77;;;11.30;;
17141;SDS011;32805;53.556;9.944;2024-03-08T13:59:16;17.85;;;11.57;;
17141;SDS011;32805;53.556;9.944;2024-03-08T14:01:44;17.83;;;10.95;;
17141;SDS011;32805;53.556;9.944;2024-03-08T14:04:16;16.50;;;9.98;;
17141;SDS011;32805;53.556;9.944;2024-03-08T14:06:44;15.40;;;9.80;;
17141;SDS011;32805;53.556;9.944;2024-03-08T14:09:12;17.73;;;9.98;;
17141;SDS011;32805;53.556;9.944;2024-03-08T14:11:43;17.55;;;10.63;;
17141;SDS011;32805;53.556;9.944;2024-03-08T14:14:11;15.93;;;10.32;;
17141;SDS011;32805;53.556;9.944;2024-03-08T14:16:39;14.52;;;10.23;;
17141;SDS011;32805;53.556;9.944;2024-03-08T14:19:07;17.35;;;10.48;;
17141;SDS011;32805;53.556;9.944;2024-03-08T14:21:37;15.27;;;10.43;;
17141;SDS011;32805;53.556;9.944;2024-03-08T14:24:06;15.52;;;9.93;;
17141;SDS011;32805;53.556;9.944;2024-03-08T14:26:33;16.25;;;10.57;;
17141;SDS011;32805;53.556;9.944;2024-03-08T14:29:04;16.17;;;10.15;;
17141;SDS011;32805;53.556;9.944;2024-03-08T14:31:33;14.55;;;9.45;;
17141;SDS011;32805;53.556;9.944;2024-03-08T14:34:02;17.98;;;9.80;;